createdAt,value
2023-06-04T00:00:33.713Z,100526.45
2023-06-04T00:03:40.594Z,100526.50
2023-06-04T00:06:46.449Z,100528.16
2023-06-04T00:09:54.749Z,100512.11
2023-06-04T00:13:00.537Z,100529.81
2023-06-04T00:16:06.880Z,100525.00
2023-06-04T00:19:13.614Z,100526.38
2023-06-04T00:22:18.887Z,100528.03
2023-06-04T00:25:25.153Z,100526.21
2023-06-04T00:28:31.025Z,100535.42
2023-06-04T00:31:36.758Z,100539.14
2023-06-04T00:34:42.365Z,100535.74
2023-06-04T00:37:50.014Z,100543.34
2023-06-04T00:40:57.213Z,100539.38
2023-06-04T00:44:08.183Z,100539.59
2023-06-04T00:47:13.103Z,100535.34
2023-06-04T00:50:18.418Z,100536.31
2023-06-04T00:53:24.352Z,100536.64
2023-06-04T00:56:29.393Z,100526.54
2023-06-04T00:59:34.542Z,100530.62
2023-06-04T01:02:40.977Z,100526.78
2023-06-04T01:06:14.257Z,100521.16
2023-06-04T01:09:20.292Z,100524.44
2023-06-04T01:12:26.015Z,100523.14
2023-06-04T01:15:31.218Z,100529.43
2023-06-04T01:18:40.931Z,100526.70
2023-06-04T01:21:47.749Z,100531.22
2023-06-04T01:24:54.295Z,100532.75
2023-06-04T01:28:04.954Z,100531.11
2023-06-04T01:31:11.891Z,100534.70
2023-06-04T01:34:17.251Z,100539.10
2023-06-04T01:37:21.945Z,100544.92
2023-06-04T01:40:27.812Z,100543.83
2023-06-04T01:43:34.067Z,100545.60
2023-06-04T01:46:39.811Z,100546.33
2023-06-04T01:49:48.675Z,100558.16
2023-06-04T01:52:57.770Z,100564.17
2023-06-04T01:55:58.297Z,100566.76
2023-06-04T01:58:51.434Z,100572.25
2023-06-04T02:01:55.987Z,100572.12
2023-06-04T02:05:02.637Z,100580.32
2023-06-04T02:08:10.019Z,100574.95
2023-06-04T02:11:16.662Z,100587.67
2023-06-04T02:14:22.792Z,100583.04
2023-06-04T02:17:28.263Z,100585.56
2023-06-04T02:20:33.226Z,100589.92
2023-06-04T02:23:39.350Z,100600.67
2023-06-04T02:26:44.757Z,100593.20
2023-06-04T02:29:50.031Z,100599.59
2023-06-04T02:32:57.157Z,100597.09
2023-06-04T02:36:03.538Z,100595.34
2023-06-04T02:39:09.458Z,100601.97
2023-06-04T02:42:15.871Z,100612.88
2023-06-04T02:45:23.208Z,100599.69
2023-06-04T02:48:28.497Z,100605.84
2023-06-04T02:51:26.784Z,100607.45
2023-06-04T02:54:32.268Z,100611.68
2023-06-04T02:57:39.878Z,100620.69
2023-06-04T03:00:46.550Z,100614.53
2023-06-04T03:03:53.842Z,100621.16
2023-06-04T03:07:02.875Z,100620.42
2023-06-04T03:10:09.604Z,100618.05
2023-06-04T03:13:16.550Z,100634.03
2023-06-04T03:16:22.337Z,100627.63
2023-06-04T03:19:27.583Z,100644.44
2023-06-04T03:22:27.005Z,100633.87
2023-06-04T03:25:32.384Z,100633.84
2023-06-04T03:28:38.036Z,100620.56
2023-06-04T03:31:46.050Z,100634.09
2023-06-04T03:34:52.899Z,100625.41
2023-06-04T03:37:58.605Z,100635.31
2023-06-04T03:41:05.390Z,100647.95
2023-06-04T03:44:12.314Z,100636.99
2023-06-04T03:47:18.978Z,100643.98
2023-06-04T03:50:25.429Z,100644.00
2023-06-04T03:53:31.948Z,100654.63
2023-06-04T03:56:37.480Z,100646.22
2023-06-04T03:59:45.064Z,100651.14
2023-06-04T04:02:51.378Z,100649.56
2023-06-04T04:06:00.836Z,100654.02
2023-06-04T04:09:07.525Z,100657.95
2023-06-04T04:12:13.920Z,100658.48
2023-06-04T04:15:21.735Z,100642.53
2023-06-04T04:18:28.370Z,100666.22
2023-06-04T04:21:33.731Z,100668.05
2023-06-04T04:24:45.701Z,100679.30
2023-06-04T04:27:52.432Z,100675.70
2023-06-04T04:30:57.337Z,100663.34
2023-06-04T04:34:06.000Z,100657.30
2023-06-04T04:37:12.488Z,100669.64
2023-06-04T04:40:19.839Z,100665.70
2023-06-04T04:43:27.097Z,100668.16
2023-06-04T04:46:34.239Z,100687.42
2023-06-04T04:49:40.306Z,100690.91
2023-06-04T04:52:45.288Z,100690.50
2023-06-04T04:55:50.692Z,100701.11
2023-06-04T04:58:57.114Z,100694.66
2023-06-04T05:02:02.453Z,100696.01
2023-06-04T05:05:07.159Z,100702.64
2023-06-04T05:08:13.891Z,100712.09
2023-06-04T05:11:20.342Z,100722.00
2023-06-04T05:14:26.042Z,100722.77
2023-06-04T05:17:33.883Z,100719.36
2023-06-04T05:20:39.900Z,100724.01
2023-06-04T05:23:46.077Z,100723.03
2023-06-04T05:26:56.231Z,100725.25
2023-06-04T05:30:01.801Z,100740.17
2023-06-04T05:33:07.339Z,100722.64
2023-06-04T05:36:14.347Z,100736.27
2023-06-04T05:39:21.674Z,100730.39
2023-06-04T05:42:32.722Z,100727.84
2023-06-04T05:45:40.468Z,100723.61
2023-06-04T05:48:47.072Z,100727.12
2023-06-04T05:51:52.561Z,100704.99
2023-06-04T05:54:58.667Z,100711.47
2023-06-04T05:58:05.042Z,100700.16
2023-06-04T06:01:10.964Z,100694.79
2023-06-04T06:04:09.508Z,100693.52
2023-06-04T06:07:10.533Z,100701.47
2023-06-04T06:10:16.702Z,100697.50
2023-06-04T06:13:23.577Z,100698.33
2023-06-04T06:16:29.930Z,100691.41
2023-06-04T06:19:34.604Z,100705.93
2023-06-04T06:22:40.364Z,100692.07
2023-06-04T06:25:48.447Z,100691.92
2023-06-04T06:28:56.256Z,100704.92
2023-06-04T06:32:03.419Z,100707.19
2023-06-04T06:35:09.998Z,100716.17
2023-06-04T06:38:18.743Z,100686.19
2023-06-04T06:41:24.082Z,100699.63
2023-06-04T06:44:29.583Z,100688.75
2023-06-04T06:47:34.716Z,100704.31
2023-06-04T06:50:42.992Z,100694.70
2023-06-04T06:53:43.560Z,100712.03
2023-06-04T06:56:48.577Z,100699.42
2023-06-04T06:59:55.291Z,100692.95
2023-06-04T07:03:01.485Z,100700.09
2023-06-04T07:06:07.547Z,100705.64
2023-06-04T07:09:14.445Z,100715.92
2023-06-04T07:12:21.082Z,100697.71
2023-06-04T07:15:26.741Z,100714.38
2023-06-04T07:18:33.039Z,100705.35
2023-06-04T07:21:38.899Z,100695.27
2023-06-04T07:24:45.173Z,100706.67
2023-06-04T07:27:49.987Z,100711.66
2023-06-04T07:30:55.826Z,100693.47
2023-06-04T07:34:02.246Z,100709.05
2023-06-04T07:37:08.248Z,100709.35
2023-06-04T07:40:14.511Z,100724.65
2023-06-04T07:43:19.858Z,100705.05
2023-06-04T07:46:29.813Z,100709.45
2023-06-04T07:49:35.422Z,100718.91
2023-06-04T07:52:41.011Z,100737.09
2023-06-04T07:55:47.746Z,100728.05
2023-06-04T07:58:55.573Z,100722.70
2023-06-04T08:02:00.711Z,100747.42
2023-06-04T08:05:06.653Z,100741.27
2023-06-04T08:08:12.039Z,100728.25
2023-06-04T08:11:17.655Z,100723.05
2023-06-04T08:14:23.079Z,100727.96
2023-06-04T08:17:29.099Z,100731.29
2023-06-04T08:20:34.492Z,100733.53
2023-06-04T08:23:39.885Z,100723.98
2023-06-04T08:26:46.298Z,100719.89
2023-06-04T08:29:52.586Z,100709.95
2023-06-04T08:32:52.789Z,100740.40
2023-06-04T08:35:58.640Z,100707.17
2023-06-04T08:39:04.749Z,100709.03
2023-06-04T08:42:15.039Z,100717.68
2023-06-04T08:45:26.098Z,100718.36
2023-06-04T08:48:31.675Z,100737.38
2023-06-04T08:51:37.206Z,100703.29
2023-06-04T08:54:42.846Z,100705.15
2023-06-04T08:57:48.874Z,100717.54
2023-06-04T09:00:55.081Z,100720.36
2023-06-04T09:04:01.793Z,100710.25
2023-06-04T09:07:08.180Z,100709.06
2023-06-04T09:10:14.159Z,100722.31
2023-06-04T09:13:23.456Z,100714.33
2023-06-04T09:16:29.193Z,100710.28
2023-06-04T09:19:35.799Z,100714.33
2023-06-04T09:22:51.672Z,100714.59
2023-06-04T09:25:59.820Z,100729.89
2023-06-04T09:28:59.899Z,100707.80
2023-06-04T09:31:46.152Z,100726.64
2023-06-04T09:34:39.236Z,100702.61
2023-06-04T09:37:32.023Z,100707.80
2023-06-04T09:40:37.303Z,100685.70
2023-06-04T09:43:44.107Z,100700.70
2023-06-04T09:46:49.886Z,100687.08
2023-06-04T09:50:02.652Z,100700.81
2023-06-04T09:53:08.371Z,100697.48
2023-06-04T09:56:18.830Z,100693.04
2023-06-04T09:59:26.310Z,100692.80
2023-06-04T10:02:35.621Z,100688.61
2023-06-04T10:05:43.101Z,100689.04
2023-06-04T10:08:47.705Z,100683.34
2023-06-04T10:12:07.253Z,100688.06
2023-06-04T10:15:16.889Z,100689.42
2023-06-04T10:18:23.328Z,100680.14
2023-06-04T10:21:30.689Z,100691.50
2023-06-04T10:24:36.160Z,100686.73
2023-06-04T10:27:43.548Z,100682.66
2023-06-04T10:30:49.550Z,100676.61
2023-06-04T10:33:56.224Z,100679.04
2023-06-04T10:37:03.052Z,100667.63
2023-06-04T10:40:14.042Z,100664.45
2023-06-04T10:43:25.840Z,100665.84
2023-06-04T10:46:32.443Z,100668.63
2023-06-04T10:49:45.372Z,100670.18
2023-06-04T10:52:51.520Z,100656.39
2023-06-04T10:56:03.556Z,100668.38
2023-06-04T10:59:09.121Z,100665.38
2023-06-04T11:02:25.446Z,100677.27
2023-06-04T11:05:30.800Z,100661.36
2023-06-04T11:08:46.518Z,100670.67
2023-06-04T11:11:52.339Z,100675.94
2023-06-04T11:15:12.724Z,100656.56
2023-06-04T11:18:19.304Z,100660.36
2023-06-04T11:21:20.441Z,100694.46
2023-06-04T11:24:16.138Z,100665.11
2023-06-04T11:27:35.570Z,100667.44
2023-06-04T11:30:30.533Z,100662.88
2023-06-04T11:33:29.194Z,100665.32
2023-06-04T11:36:21.598Z,100658.00
2023-06-04T11:39:26.514Z,100666.52
2023-06-04T11:42:32.202Z,100656.88
2023-06-04T11:45:39.421Z,100653.06
2023-06-04T11:48:45.879Z,100663.08
2023-06-04T11:51:52.600Z,100662.12
2023-06-04T11:54:59.157Z,100658.20
2023-06-04T11:58:04.055Z,100655.34
2023-06-04T12:01:11.905Z,100669.67
2023-06-04T12:04:17.087Z,100649.06
2023-06-04T12:07:22.689Z,100659.83
2023-06-04T12:10:28.289Z,100654.23
2023-06-04T12:13:33.836Z,100647.24
2023-06-04T12:16:40.296Z,100656.74
2023-06-04T12:19:46.041Z,100655.41
2023-06-04T12:22:56.781Z,100655.64
2023-06-04T12:26:09.618Z,100655.34
2023-06-04T12:29:27.906Z,100648.46
2023-06-04T12:32:34.224Z,100645.88
2023-06-04T12:35:40.177Z,100649.63
2023-06-04T12:38:47.181Z,100650.06
2023-06-04T12:41:53.198Z,100644.91
2023-06-04T12:44:58.347Z,100639.12
2023-06-04T12:48:04.789Z,100649.30
2023-06-04T12:51:10.323Z,100641.63
2023-06-04T12:54:15.308Z,100646.95
2023-06-04T12:57:19.985Z,100644.65
2023-06-04T13:00:25.749Z,100654.42
2023-06-04T13:03:32.475Z,100654.30
2023-06-04T13:06:38.946Z,100642.77
2023-06-04T13:09:45.393Z,100649.20
2023-06-04T13:12:51.954Z,100633.94
2023-06-04T13:15:58.302Z,100640.97
2023-06-04T13:19:03.688Z,100636.72
2023-06-04T13:22:09.354Z,100632.73
2023-06-04T13:25:15.424Z,100641.05
2023-06-04T13:28:23.375Z,100635.94
2023-06-04T13:31:28.718Z,100635.03
2023-06-04T13:34:34.685Z,100622.75
2023-06-04T13:37:40.685Z,100623.86
2023-06-04T13:40:46.887Z,100636.00
2023-06-04T13:43:53.121Z,100638.45
2023-06-04T13:46:59.581Z,100631.48
2023-06-04T13:50:05.184Z,100627.14
2023-06-04T13:53:10.753Z,100622.61
2023-06-04T13:56:16.765Z,100614.91
2023-06-04T13:59:22.369Z,100625.48
2023-06-04T14:02:29.453Z,100624.13
2023-06-04T14:05:35.552Z,100622.59
2023-06-04T14:08:41.185Z,100625.83
2023-06-04T14:11:49.333Z,100622.27
2023-06-04T14:14:54.475Z,100631.60
2023-06-04T14:18:01.680Z,100621.84
2023-06-04T14:21:10.805Z,100628.83
2023-06-04T14:24:15.976Z,100619.21
2023-06-04T14:27:21.685Z,100620.39
2023-06-04T14:30:27.759Z,100621.84
2023-06-04T14:33:33.835Z,100620.77
2023-06-04T14:36:39.520Z,100622.84
2023-06-04T14:39:46.341Z,100628.27
2023-06-04T14:42:51.661Z,100622.41
2023-06-04T14:45:57.679Z,100628.62
2023-06-04T14:49:03.681Z,100628.77
2023-06-04T14:52:09.249Z,100623.70
2023-06-04T14:55:15.220Z,100620.96
2023-06-04T14:58:20.007Z,100626.86
2023-06-04T15:01:25.604Z,100627.22
2023-06-04T15:04:32.286Z,100626.89
2023-06-04T15:07:38.850Z,100622.39
2023-06-04T15:10:44.444Z,100640.55
2023-06-04T15:13:49.466Z,100623.19
2023-06-04T15:16:56.053Z,100629.59
2023-06-04T15:20:01.592Z,100627.93
2023-06-04T15:22:59.448Z,100622.26
2023-06-04T15:26:04.756Z,100620.39
2023-06-04T15:29:10.958Z,100620.47
2023-06-04T15:32:17.691Z,100627.28
2023-06-04T15:35:23.800Z,100643.44
2023-06-04T15:38:31.976Z,100633.87
2023-06-04T15:41:37.792Z,100638.48
2023-06-04T15:44:44.446Z,100633.35
2023-06-04T15:47:50.050Z,100631.28
2023-06-04T15:50:57.966Z,100629.81
2023-06-04T15:54:04.299Z,100625.06
2023-06-04T15:57:10.826Z,100637.91
2023-06-04T16:00:15.456Z,100638.92
2023-06-04T16:03:21.599Z,100634.53
2023-06-04T16:06:28.172Z,100635.61
2023-06-04T16:09:34.646Z,100635.78
2023-06-04T16:12:40.262Z,100637.61
2023-06-04T16:15:45.820Z,100633.48
2023-06-04T16:18:54.349Z,100636.73
2023-06-04T16:22:00.316Z,100634.17
2023-06-04T16:25:06.188Z,100627.20
2023-06-04T16:28:12.408Z,100632.63
2023-06-04T16:31:18.227Z,100633.37
2023-06-04T16:34:25.332Z,100626.03
2023-06-04T16:37:30.454Z,100617.03
2023-06-04T16:40:35.826Z,100622.91
2023-06-04T16:43:41.683Z,100627.27
2023-06-04T16:46:47.021Z,100623.34
2023-06-04T16:49:53.374Z,100624.06
2023-06-04T16:52:59.622Z,100623.52
2023-06-04T16:56:05.998Z,100618.93
2023-06-04T16:59:12.972Z,100621.78
2023-06-04T17:02:19.313Z,100612.34
2023-06-04T17:05:26.872Z,100614.41
2023-06-04T17:08:32.780Z,100612.81
2023-06-04T17:11:39.819Z,100612.83
2023-06-04T17:14:45.350Z,100616.20
2023-06-04T17:17:51.484Z,100613.07
2023-06-04T17:20:57.983Z,100612.51
2023-06-04T17:24:07.702Z,100617.77
2023-06-04T17:27:12.979Z,100622.50
2023-06-04T17:30:18.636Z,100634.80
2023-06-04T17:33:24.266Z,100631.48
2023-06-04T17:36:29.499Z,100627.08
2023-06-04T17:39:34.960Z,100629.56
2023-06-04T17:42:41.485Z,100635.57
2023-06-04T17:45:40.298Z,100642.98
2023-06-04T17:48:32.723Z,100639.19
2023-06-04T17:51:39.104Z,100644.78
2023-06-04T17:54:44.632Z,100653.84
2023-06-04T17:57:44.650Z,100662.20
2023-06-04T18:00:49.767Z,100666.09
2023-06-04T18:03:57.132Z,100665.92
2023-06-04T18:07:02.735Z,100667.35
2023-06-04T18:10:08.594Z,100669.77
2023-06-04T18:13:13.836Z,100668.28
2023-06-04T18:16:22.770Z,100671.02
2023-06-04T18:19:28.741Z,100675.85
2023-06-04T18:22:36.300Z,100679.59
2023-06-04T18:25:43.005Z,100681.36
2023-06-04T18:28:49.655Z,100688.09
2023-06-04T18:31:56.101Z,100687.30
2023-06-04T18:35:01.904Z,100694.64
2023-06-04T18:38:07.863Z,100686.23
2023-06-04T18:41:14.041Z,100682.18
2023-06-04T18:44:19.771Z,100688.60
2023-06-04T18:47:26.275Z,100694.06
2023-06-04T18:50:31.358Z,100687.67
2023-06-04T18:53:36.870Z,100697.98
2023-06-04T18:56:41.913Z,100693.94
2023-06-04T18:59:48.758Z,100696.44
2023-06-04T19:02:55.369Z,100697.47
2023-06-04T19:06:06.118Z,100689.31
2023-06-04T19:09:12.598Z,100691.66
2023-06-04T19:12:18.111Z,100700.15
2023-06-04T19:15:25.442Z,100698.91
2023-06-04T19:18:30.487Z,100696.45
2023-06-04T19:21:35.733Z,100694.97
2023-06-04T19:24:41.540Z,100695.83
2023-06-04T19:27:50.130Z,100693.72
2023-06-04T19:30:55.987Z,100691.86
2023-06-04T19:34:01.806Z,100695.71
2023-06-04T19:37:09.500Z,100700.91
2023-06-04T19:40:15.870Z,100706.75
2023-06-04T19:43:22.138Z,100712.00
2023-06-04T19:46:27.312Z,100697.53
2023-06-04T19:49:26.845Z,100699.53
2023-06-04T19:52:34.154Z,100700.08
2023-06-04T19:55:34.021Z,100696.66
2023-06-04T19:58:40.012Z,100705.14
2023-06-04T20:01:45.321Z,100695.06
2023-06-04T20:04:50.283Z,100700.35
2023-06-04T20:07:56.968Z,100702.45
2023-06-04T20:11:02.603Z,100706.28
2023-06-04T20:14:08.302Z,100706.38
2023-06-04T20:17:13.734Z,100716.67
2023-06-04T20:20:21.415Z,100714.31
2023-06-04T20:23:27.373Z,100714.18
2023-06-04T20:26:40.753Z,100720.84
2023-06-04T20:29:45.740Z,100718.14
2023-06-04T20:32:52.111Z,100716.38
2023-06-04T20:35:58.318Z,100710.23
2023-06-04T20:39:04.285Z,100715.63
2023-06-04T20:42:10.362Z,100715.06
2023-06-04T20:45:16.924Z,100719.05
2023-06-04T20:48:23.564Z,100716.68
2023-06-04T20:51:29.182Z,100714.22
2023-06-04T20:54:35.517Z,100714.91
2023-06-04T20:57:41.207Z,100710.47
2023-06-04T21:00:46.611Z,100710.40
2023-06-04T21:03:52.189Z,100712.47
2023-06-04T21:06:57.976Z,100706.23
2023-06-04T21:10:03.091Z,100701.34
2023-06-04T21:13:08.539Z,100698.42
2023-06-04T21:16:13.872Z,100703.26
2023-06-04T21:19:18.948Z,100701.84
2023-06-04T21:22:24.832Z,100704.11
2023-06-04T21:25:30.748Z,100702.91
2023-06-04T21:28:36.029Z,100708.98
2023-06-04T21:31:41.897Z,100704.86
2023-06-04T21:34:47.578Z,100709.45
2023-06-04T21:37:53.408Z,100706.77
2023-06-04T21:40:58.123Z,100712.13
2023-06-04T21:44:03.958Z,100722.59
2023-06-04T21:47:09.910Z,100718.98
2023-06-04T21:50:16.210Z,100719.52
2023-06-04T21:53:21.972Z,100721.54
2023-06-04T21:56:27.646Z,100726.28
2023-06-04T21:59:33.349Z,100719.84
2023-06-04T22:02:39.347Z,100717.09
2023-06-04T22:05:44.725Z,100723.16
2023-06-04T22:08:51.188Z,100722.59
2023-06-04T22:11:57.085Z,100723.30
2023-06-04T22:15:03.234Z,100719.90
2023-06-04T22:18:08.993Z,100723.18
2023-06-04T22:21:14.791Z,100727.12
2023-06-04T22:24:20.520Z,100736.06
2023-06-04T22:27:26.215Z,100739.58
2023-06-04T22:30:32.327Z,100739.52
2023-06-04T22:33:39.380Z,100740.16
2023-06-04T22:36:44.712Z,100738.34
2023-06-04T22:39:51.239Z,100744.82
2023-06-04T22:42:57.877Z,100754.88
2023-06-04T22:46:05.919Z,100755.52
2023-06-04T22:49:11.832Z,100759.38
2023-06-04T22:52:18.715Z,100756.52
2023-06-04T22:55:25.802Z,100756.98
2023-06-04T22:58:31.050Z,100759.66
2023-06-04T23:01:37.685Z,100757.42
2023-06-04T23:04:44.695Z,100761.79
2023-06-04T23:07:50.057Z,100767.80
2023-06-04T23:10:55.835Z,100770.23
2023-06-04T23:14:01.542Z,100772.03
2023-06-04T23:17:08.281Z,100771.00
2023-06-04T23:20:13.889Z,100775.84
2023-06-04T23:23:19.544Z,100780.14
2023-06-04T23:26:25.371Z,100781.39
2023-06-04T23:29:30.853Z,100777.33
2023-06-04T23:32:36.716Z,100779.94
2023-06-04T23:35:43.180Z,100775.66
2023-06-04T23:38:50.070Z,100771.14
2023-06-04T23:41:57.621Z,100777.88
2023-06-04T23:45:03.334Z,100776.45
2023-06-04T23:48:09.913Z,100776.39
2023-06-04T23:51:09.594Z,100770.67
2023-06-04T23:54:14.841Z,100770.87
2023-06-04T23:57:19.518Z,100769.28
